Time;durP1;ratioP1;P1;durP2;ratioP2;P2;SDS_P1;SDS_P2;PMS_P1;PMS_P2;Temp;Humidity;BMP_temperature;BMP_pressure;BME280_temperature;BME280_humidity;BME280_pressure;Samples;Min_cycle;Max_cycle;Signal;HPM_P1;HPM_P2
2021/05/26 00:00:20;;;;;;;5.37;3.73;;;;;;;;;;6175370;23;20200;-93
2021/05/26 00:03:27;;;;;;;14.97;3.00;;;;;;;;;;6174773;23;20278;-95
2021/05/26 00:06:33;;;;;;;12.73;3.67;;;;;;;;;;6174758;23;20234;-93
2021/05/26 00:09:40;;;;;;;7.20;3.60;;;;;;;;;;6175837;23;20164;-94
2021/05/26 00:12:46;;;;;;;9.00;3.97;;;;;;;;;;6174093;23;20172;-94
2021/05/26 00:15:51;;;;;;;8.57;4.30;;;;;;;;;;6169499;23;20608;-94
2021/05/26 00:18:56;;;;;;;9.57;4.30;;;;;;;;;;6171053;23;20169;-94
2021/05/26 00:22:01;;;;;;;14.30;4.67;;;;;;;;;;6171093;23;20168;-94
2021/05/26 00:25:07;;;;;;;9.60;4.27;;;;;;;;;;6170822;23;20211;-95
2021/05/26 00:28:12;;;;;;;10.43;4.43;;;;;;;;;;6172058;23;20176;-94
2021/05/26 00:31:21;;;;;;;9.07;4.10;;;;;;;;;;6169308;23;20172;-95
2021/05/26 00:34:25;;;;;;;12.57;4.50;;;;;;;;;;6169074;23;20209;-95
2021/05/26 00:37:30;;;;;;;8.13;4.20;;;;;;;;;;6168837;23;20169;-95
2021/05/26 00:40:37;;;;;;;13.63;4.40;;;;;;;;;;6170710;23;20168;-94
2021/05/26 00:43:42;;;;;;;12.83;4.57;;;;;;;;;;6172872;23;20193;-95
2021/05/26 00:46:47;;;;;;;9.30;4.30;;;;;;;;;;6171969;23;20168;-95
2021/05/26 00:49:52;;;;;;;18.77;4.47;;;;;;;;;;6171804;23;20196;-93
2021/05/26 00:52:59;;;;;;;16.83;4.17;;;;;;;;;;6171963;23;20172;-95
2021/05/26 00:56:06;;;;;;;9.97;4.30;;;;;;;;;;6173043;23;20152;-95
2021/05/26 00:59:11;;;;;;;11.00;4.37;;;;;;;;;;6172096;23;20236;-94
2021/05/26 01:02:16;;;;;;;15.03;4.37;;;;;;;;;;6173176;23;20251;-95
2021/05/26 01:05:23;;;;;;;7.67;4.27;;;;;;;;;;6174940;23;20195;-94
2021/05/26 01:08:28;;;;;;;11.10;4.23;;;;;;;;;;6172944;23;20169;-94
2021/05/26 01:11:36;;;;;;;20.47;3.77;;;;;;;;;;6172293;23;20174;-95
2021/05/26 01:14:42;;;;;;;17.47;4.50;;;;;;;;;;6172097;23;20161;-93
2021/05/26 01:17:49;;;;;;;15.13;4.33;;;;;;;;;;6171341;23;20171;-93
2021/05/26 01:20:58;;;;;;;15.93;4.20;;;;;;;;;;6172889;23;20165;-93
2021/05/26 01:24:06;;;;;;;19.77;4.63;;;;;;;;;;6173543;23;20172;-94
2021/05/26 01:27:14;;;;;;;9.57;4.07;;;;;;;;;;6170967;23;20165;-95
2021/05/26 01:30:22;;;;;;;6.47;3.63;;;;;;;;;;6171320;23;20192;-94
2021/05/26 01:33:29;;;;;;;9.83;3.13;;;;;;;;;;6171682;23;20165;-94
2021/05/26 01:36:37;;;;;;;4.90;2.97;;;;;;;;;;6170892;23;20244;-94
2021/05/26 01:39:48;;;;;;;5.03;2.67;;;;;;;;;;6172709;23;20192;-96
2021/05/26 01:42:53;;;;;;;3.60;2.27;;;;;;;;;;6173083;23;20194;-95
2021/05/26 01:46:01;;;;;;;5.73;2.83;;;;;;;;;;6172976;23;20192;-94
2021/05/26 01:49:10;;;;;;;6.67;3.43;;;;;;;;;;6173527;23;20161;-95
2021/05/26 01:52:15;;;;;;;6.20;3.57;;;;;;;;;;6173000;23;20169;-94
2021/05/26 01:55:21;;;;;;;10.23;4.40;;;;;;;;;;6172294;23;20181;-95
2021/05/26 01:58:27;;;;;;;7.33;3.90;;;;;;;;;;6173135;23;20167;-94
2021/05/26 02:01:38;;;;;;;6.43;3.60;;;;;;;;;;6172009;23;20195;-96
2021/05/26 02:04:46;;;;;;;4.70;2.50;;;;;;;;;;6174090;23;20176;-95
2021/05/26 02:07:52;;;;;;;6.87;3.23;;;;;;;;;;6173199;23;20188;-96
2021/05/26 02:14:21;;;;;;;9.80;4.00;;;;;;;;;;6171721;23;20233;-93
2021/05/26 02:17:26;;;;;;;6.67;3.70;;;;;;;;;;6169236;23;20168;-92
2021/05/26 02:20:35;;;;;;;5.20;3.30;;;;;;;;;;6172373;23;20244;-94
2021/05/26 02:23:39;;;;;;;7.00;3.67;;;;;;;;;;6172571;23;20238;-94
2021/05/26 02:26:45;;;;;;;10.03;3.60;;;;;;;;;;6171622;23;20180;-94
2021/05/26 02:29:50;;;;;;;7.07;3.60;;;;;;;;;;6171328;23;20173;-93
2021/05/26 02:32:56;;;;;;;6.30;3.40;;;;;;;;;;6171149;23;20176;-95
2021/05/26 02:36:00;;;;;;;6.90;3.10;;;;;;;;;;6169923;23;20169;-95
2021/05/26 02:39:05;;;;;;;6.43;2.10;;;;;;;;;;6171722;23;20520;-93
2021/05/26 02:42:12;;;;;;;4.77;2.80;;;;;;;;;;6171324;23;20170;-94
2021/05/26 02:45:18;;;;;;;6.30;3.20;;;;;;;;;;6170838;23;20183;-94
2021/05/26 02:48:23;;;;;;;4.77;2.90;;;;;;;;;;6172108;23;20208;-94
2021/05/26 02:51:28;;;;;;;8.07;3.77;;;;;;;;;;6172494;23;20168;-94
2021/05/26 02:54:34;;;;;;;5.87;3.17;;;;;;;;;;6172264;23;20152;-95
2021/05/26 02:57:40;;;;;;;11.07;4.00;;;;;;;;;;6172404;23;20168;-93
2021/05/26 03:01:23;;;;;;;10.60;3.97;;;;;;;;;;6171959;23;20212;-94
2021/05/26 03:04:50;;;;;;;8.17;3.07;;;;;;;;;;6153505;23;20189;-94
2021/05/26 03:07:55;;;;;;;11.07;3.70;;;;;;;;;;6156142;23;20176;-94
2021/05/26 03:11:00;;;;;;;20.07;3.70;;;;;;;;;;6156781;23;20256;-94
2021/05/26 03:14:27;;;;;;;8.57;3.23;;;;;;;;;;6161647;23;20173;-94
2021/05/26 03:17:37;;;;;;;5.00;3.00;;;;;;;;;;6157085;23;20169;-94
2021/05/26 03:20:42;;;;;;;6.17;3.30;;;;;;;;;;6156724;23;20177;-94
2021/05/26 03:24:08;;;;;;;5.03;3.10;;;;;;;;;;6158514;23;20173;-94
2021/05/26 03:27:20;;;;;;;7.17;2.97;;;;;;;;;;6157827;23;20508;-94
2021/05/26 03:30:26;;;;;;;9.77;3.50;;;;;;;;;;6156616;23;20168;-94
2021/05/26 03:33:31;;;;;;;5.93;3.23;;;;;;;;;;6155768;23;20296;-93
2021/05/26 03:36:38;;;;;;;6.67;3.20;;;;;;;;;;6157006;23;20172;-94
2021/05/26 03:39:45;;;;;;;6.13;3.30;;;;;;;;;;6154291;23;20173;-96
2021/05/26 03:42:51;;;;;;;7.00;3.93;;;;;;;;;;6154477;23;20172;-94
2021/05/26 03:46:11;;;;;;;7.73;3.93;;;;;;;;;;6155296;23;20188;-93
2021/05/26 03:49:16;;;;;;;12.00;4.77;;;;;;;;;;6155446;23;20241;-93
2021/05/26 03:55:19;;;;;;;9.27;4.30;;;;;;;;;;6190207;23;20216;-94
2021/05/26 03:58:25;;;;;;;9.67;4.13;;;;;;;;;;6199473;23;20616;-92
2021/05/26 04:05:52;;;;;;;10.00;3.70;;;;;;;;;;6201885;23;20265;-93
2021/05/26 04:08:58;;;;;;;10.47;4.40;;;;;;;;;;6200353;23;20606;-93
2021/05/26 04:12:03;;;;;;;8.57;3.80;;;;;;;;;;6201141;23;20183;-93
2021/05/26 04:15:36;;;;;;;6.00;3.43;;;;;;;;;;6201008;23;20186;-93
2021/05/26 04:19:14;;;;;;;13.47;4.73;;;;;;;;;;6179484;23;20183;-92
2021/05/26 04:22:21;;;;;;;7.80;4.27;;;;;;;;;;6184322;23;20184;-93
2021/05/26 04:25:32;;;;;;;6.63;4.00;;;;;;;;;;6201898;23;20223;-93
2021/05/26 04:28:44;;;;;;;8.20;3.87;;;;;;;;;;6200980;23;20207;-93
2021/05/26 04:31:50;;;;;;;16.87;3.50;;;;;;;;;;6203252;23;20192;-92
2021/05/26 04:34:59;;;;;;;4.97;3.17;;;;;;;;;;6203962;23;20263;-92
2021/05/26 04:38:07;;;;;;;9.00;3.93;;;;;;;;;;6185635;23;20171;-93
2021/05/26 04:41:12;;;;;;;6.77;3.50;;;;;;;;;;6203982;23;20198;-92
2021/05/26 04:44:16;;;;;;;7.67;3.87;;;;;;;;;;6200211;23;20183;-93
2021/05/26 04:47:21;;;;;;;5.27;3.17;;;;;;;;;;6199910;23;20215;-90
2021/05/26 04:50:26;;;;;;;10.77;3.50;;;;;;;;;;6182647;23;20171;-93
2021/05/26 04:53:31;;;;;;;7.33;3.43;;;;;;;;;;6199735;23;20240;-93
2021/05/26 04:56:37;;;;;;;6.87;2.90;;;;;;;;;;6198288;23;20401;-92
2021/05/26 04:59:42;;;;;;;4.80;2.87;;;;;;;;;;6201733;23;20156;-92
2021/05/26 05:02:47;;;;;;;4.87;2.97;;;;;;;;;;6205192;23;20184;-92
2021/05/26 05:05:53;;;;;;;11.50;3.17;;;;;;;;;;6205454;23;20195;-92
2021/05/26 05:09:00;;;;;;;6.83;3.30;;;;;;;;;;6188853;23;20179;-92
2021/05/26 05:12:06;;;;;;;6.67;2.93;;;;;;;;;;6187673;23;20188;-93
2021/05/26 05:15:12;;;;;;;8.23;3.30;;;;;;;;;;6187868;23;20172;-93
2021/05/26 05:18:17;;;;;;;3.57;2.57;;;;;;;;;;6205943;23;20183;-92
2021/05/26 05:21:24;;;;;;;8.73;3.70;;;;;;;;;;6204706;23;20212;-94
2021/05/26 05:24:30;;;;;;;4.57;2.40;;;;;;;;;;6206291;23;20191;-93
2021/05/26 05:27:35;;;;;;;4.37;2.70;;;;;;;;;;6187743;23;20475;-93
2021/05/26 05:30:40;;;;;;;3.77;2.47;;;;;;;;;;6205262;23;20163;-93
2021/05/26 05:33:46;;;;;;;4.17;2.53;;;;;;;;;;6205503;23;20171;-94
2021/05/26 05:36:51;;;;;;;5.63;2.57;;;;;;;;;;6204058;23;20219;-93
2021/05/26 05:39:59;;;;;;;6.90;2.53;;;;;;;;;;6202966;23;20171;-95
2021/05/26 05:43:04;;;;;;;4.87;2.13;;;;;;;;;;6206459;23;20241;-93
2021/05/26 05:46:11;;;;;;;4.07;2.33;;;;;;;;;;6186354;23;20198;-94
2021/05/26 05:49:17;;;;;;;3.63;2.30;;;;;;;;;;6203077;23;20192;-93
2021/05/26 05:52:22;;;;;;;3.20;2.20;;;;;;;;;;6186360;23;20211;-94
2021/05/26 05:55:27;;;;;;;6.37;2.97;;;;;;;;;;6198744;23;20188;-94
2021/05/26 05:58:32;;;;;;;5.17;2.80;;;;;;;;;;6220163;22;20171;-93
2021/05/26 06:01:37;;;;;;;5.60;2.80;;;;;;;;;;6220257;22;20171;-94
2021/05/26 06:04:43;;;;;;;6.00;2.67;;;;;;;;;;6202957;23;20219;-93
2021/05/26 06:07:48;;;;;;;11.03;5.93;;;;;;;;;;6201251;23;20200;-94
2021/05/26 06:10:53;;;;;;;8.07;3.70;;;;;;;;;;6201662;23;20163;-93
2021/05/26 06:17:19;;;;;;;6.60;3.40;;;;;;;;;;6201713;23;20164;-93
2021/05/26 06:20:24;;;;;;;7.00;3.20;;;;;;;;;;6201192;23;20192;-95
2021/05/26 06:23:30;;;;;;;9.80;4.03;;;;;;;;;;6204164;23;20164;-95
2021/05/26 06:26:36;;;;;;;9.48;3.47;;;;;;;;;;6205918;23;20211;-93
2021/05/26 18:37:23;;;;;;;7.55;1.83;;;;;;;;;;6173826;23;20216;-90
2021/05/26 18:40:30;;;;;;;6.18;2.03;;;;;;;;;;6203135;23;20172;-90
2021/05/26 18:43:35;;;;;;;10.65;4.13;;;;;;;;;;6203293;23;20196;-90
2021/05/26 18:46:41;;;;;;;14.07;4.07;;;;;;;;;;6186813;23;20171;-90
2021/05/26 18:49:50;;;;;;;6.30;1.85;;;;;;;;;;6200160;23;20199;-90
2021/05/26 18:52:57;;;;;;;3.63;1.88;;;;;;;;;;6202591;23;20180;-90
2021/05/26 18:59:20;;;;;;;7.38;1.75;;;;;;;;;;6185412;23;20675;-90
2021/05/26 19:02:26;;;;;;;12.77;5.03;;;;;;;;;;6203848;23;20163;-91
2021/05/26 19:05:33;;;;;;;8.70;4.00;;;;;;;;;;6201005;23;20176;-91
2021/05/26 19:08:41;;;;;;;10.05;4.18;;;;;;;;;;6200487;23;20180;-91
2021/05/26 19:11:46;;;;;;;6.38;2.20;;;;;;;;;;6182481;23;20176;-91
2021/05/26 19:14:54;;;;;;;6.20;2.80;;;;;;;;;;6202062;23;20168;-91
2021/05/26 19:17:59;;;;;;;7.57;2.95;;;;;;;;;;6203028;23;20168;-91
2021/05/26 19:21:03;;;;;;;6.00;2.25;;;;;;;;;;6202487;23;20172;-91
2021/05/26 19:24:12;;;;;;;7.18;2.35;;;;;;;;;;6204504;23;20167;-91
2021/05/26 19:27:18;;;;;;;6.40;2.63;;;;;;;;;;6206110;23;20679;-92
2021/05/26 19:30:23;;;;;;;7.25;2.13;;;;;;;;;;6204538;23;20167;-92
2021/05/26 19:33:28;;;;;;;5.78;1.98;;;;;;;;;;6204443;23;20192;-90
2021/05/26 19:36:33;;;;;;;5.10;1.80;;;;;;;;;;6204236;23;20314;-92
2021/05/26 19:39:39;;;;;;;6.03;3.45;;;;;;;;;;6203501;23;20171;-92
2021/05/26 19:42:45;;;;;;;4.20;1.48;;;;;;;;;;6204034;23;20171;-91
2021/05/26 19:45:51;;;;;;;6.35;2.05;;;;;;;;;;6202304;23;20167;-91
2021/05/26 19:48:57;;;;;;;7.40;2.05;;;;;;;;;;6189169;23;20168;-91
2021/05/26 19:52:06;;;;;;;12.00;4.63;;;;;;;;;;6190610;23;20191;-92
2021/05/26 19:55:14;;;;;;;6.50;2.13;;;;;;;;;;6187914;23;20196;-92
2021/05/26 19:58:19;;;;;;;6.78;2.40;;;;;;;;;;6187244;23;20203;-91
2021/05/26 20:04:56;;;;;;;4.75;2.10;;;;;;;;;;6186599;23;20194;-92
2021/05/26 20:08:02;;;;;;;12.27;2.50;;;;;;;;;;6188181;23;20159;-91
2021/05/26 20:11:11;;;;;;;4.65;2.20;;;;;;;;;;6206543;23;20172;-91
2021/05/26 20:14:19;;;;;;;8.50;2.53;;;;;;;;;;6190247;23;20183;-92
2021/05/26 20:17:25;;;;;;;7.50;3.00;;;;;;;;;;6206168;23;20244;-92
2021/05/26 20:20:30;;;;;;;5.70;2.17;;;;;;;;;;6202837;23;20167;-91
2021/05/26 20:23:35;;;;;;;5.32;2.50;;;;;;;;;;6185505;23;20171;-92
2021/05/26 20:26:43;;;;;;;6.75;2.60;;;;;;;;;;6203400;23;20167;-91
2021/05/26 20:29:47;;;;;;;5.93;2.38;;;;;;;;;;6204034;23;20211;-91
2021/05/26 20:32:54;;;;;;;9.25;2.25;;;;;;;;;;6203710;23;20167;-92
2021/05/26 20:36:00;;;;;;;6.00;2.15;;;;;;;;;;6204210;23;20328;-92
2021/05/26 20:39:06;;;;;;;5.75;2.35;;;;;;;;;;6204166;23;20180;-92
2021/05/26 20:42:12;;;;;;;6.28;2.00;;;;;;;;;;6204705;23;20229;-92
2021/05/26 20:45:17;;;;;;;6.75;2.92;;;;;;;;;;6197999;23;20219;-90
2021/05/26 20:48:32;;;;;;;11.85;2.80;;;;;;;;;;6197069;23;20180;-90
2021/05/26 20:51:36;;;;;;;8.07;2.22;;;;;;;;;;6199783;23;20692;-90
2021/05/26 20:54:41;;;;;;;6.18;2.13;;;;;;;;;;6200907;23;20295;-92
2021/05/26 20:57:49;;;;;;;3.78;1.90;;;;;;;;;;6201856;23;20290;-92
2021/05/26 21:00:55;;;;;;;5.85;2.35;;;;;;;;;;6202872;23;20192;-91
2021/05/26 21:04:00;;;;;;;9.57;3.70;;;;;;;;;;6190095;23;20188;-91
2021/05/26 21:10:27;;;;;;;9.90;2.38;;;;;;;;;;6183823;23;20176;-91
2021/05/26 21:13:34;;;;;;;7.03;2.10;;;;;;;;;;6184129;23;20219;-91
2021/05/26 21:16:45;;;;;;;6.80;2.40;;;;;;;;;;6201982;23;20208;-91
2021/05/26 21:19:50;;;;;;;5.43;2.50;;;;;;;;;;6184160;23;20179;-92
2021/05/26 21:22:55;;;;;;;4.70;2.30;;;;;;;;;;6200884;23;20173;-91
2021/05/26 21:26:01;;;;;;;9.27;2.28;;;;;;;;;;6199779;23;20219;-93
2021/05/26 21:29:08;;;;;;;5.65;2.03;;;;;;;;;;6184680;23;20172;-91
2021/05/26 21:32:12;;;;;;;7.70;2.35;;;;;;;;;;6183581;23;20163;-91
2021/05/26 21:35:20;;;;;;;6.80;2.15;;;;;;;;;;6203217;23;20195;-91
2021/05/26 21:38:27;;;;;;;7.75;2.17;;;;;;;;;;6215682;23;20257;-91
2021/05/26 21:41:34;;;;;;;6.43;2.20;;;;;;;;;;6201379;23;20175;-92
2021/05/26 21:44:40;;;;;;;8.23;2.08;;;;;;;;;;6216495;23;20171;-92
2021/05/26 21:47:46;;;;;;;7.65;2.33;;;;;;;;;;6199981;23;20196;-91
2021/05/26 21:50:51;;;;;;;6.20;2.20;;;;;;;;;;6200866;23;20176;-91
2021/05/26 21:53:56;;;;;;;6.47;2.30;;;;;;;;;;6217175;23;20192;-92
2021/05/26 21:57:01;;;;;;;8.98;2.30;;;;;;;;;;6200929;23;20255;-93
2021/05/26 22:00:11;;;;;;;4.97;2.22;;;;;;;;;;6221316;22;20172;-92
2021/05/26 22:07:35;;;;;;;6.80;2.50;;;;;;;;;;6203306;23;20152;-92
2021/05/26 22:10:41;;;;;;;6.32;2.70;;;;;;;;;;6201582;23;20188;-91
2021/05/26 22:13:46;;;;;;;7.07;3.25;;;;;;;;;;6201132;23;20184;-92
2021/05/26 22:16:55;;;;;;;10.63;2.88;;;;;;;;;;6199431;23;20191;-92
2021/05/26 22:20:01;;;;;;;7.45;2.55;;;;;;;;;;6199330;23;20171;-92
2021/05/26 22:23:10;;;;;;;9.23;2.50;;;;;;;;;;6199146;23;20211;-91
2021/05/26 22:26:16;;;;;;;5.72;2.20;;;;;;;;;;6199885;23;20191;-92
2021/05/26 22:29:25;;;;;;;4.80;2.95;;;;;;;;;;6201116;23;20175;-92
2021/05/26 22:32:33;;;;;;;8.20;2.13;;;;;;;;;;6201510;23;20172;-92
2021/05/26 22:35:38;;;;;;;7.35;2.40;;;;;;;;;;6201341;23;20222;-92
2021/05/26 22:38:43;;;;;;;6.85;2.28;;;;;;;;;;6202796;23;20218;-90
2021/05/26 22:41:47;;;;;;;5.15;1.77;;;;;;;;;;6202756;23;20191;-91
2021/05/26 22:44:55;;;;;;;4.80;1.95;;;;;;;;;;6202152;23;20176;-91
2021/05/26 22:48:05;;;;;;;7.45;2.20;;;;;;;;;;6200654;23;20216;-93
2021/05/26 22:51:10;;;;;;;11.40;2.40;;;;;;;;;;6201636;23;20211;-91
2021/05/26 22:54:15;;;;;;;3.10;1.60;;;;;;;;;;6201264;23;20490;-92
2021/05/26 22:57:20;;;;;;;4.75;1.90;;;;;;;;;;6199857;23;20196;-92
2021/05/26 23:00:30;;;;;;;2.30;1.20;;;;;;;;;;6201395;23;20215;-91
2021/05/26 23:03:50;;;;;;;2.83;1.48;;;;;;;;;;6200889;23;20208;-90
2021/05/26 23:06:57;;;;;;;5.75;1.77;;;;;;;;;;6202058;23;20183;-90
2021/05/26 23:10:02;;;;;;;3.58;1.23;;;;;;;;;;6200761;23;20168;-91
2021/05/26 23:13:07;;;;;;;4.80;2.17;;;;;;;;;;6200734;23;20548;-90
2021/05/26 23:16:12;;;;;;;4.55;1.05;;;;;;;;;;6199920;23;20192;-91
2021/05/26 23:19:17;;;;;;;5.47;1.38;;;;;;;;;;6200556;23;20172;-90
2021/05/26 23:22:24;;;;;;;3.88;1.20;;;;;;;;;;6215403;22;20191;-91
2021/05/26 23:25:29;;;;;;;4.00;1.52;;;;;;;;;;6200457;23;20152;-91
2021/05/26 23:28:34;;;;;;;4.50;1.17;;;;;;;;;;6198983;23;20212;-90
2021/05/26 23:31:38;;;;;;;3.08;1.10;;;;;;;;;;6198380;23;20271;-92
2021/05/26 23:34:43;;;;;;;3.58;1.13;;;;;;;;;;6198970;23;20171;-91
2021/05/26 23:37:49;;;;;;;1.95;1.02;;;;;;;;;;6199202;23;20298;-92
2021/05/26 23:40:53;;;;;;;3.35;1.30;;;;;;;;;;6198444;23;20172;-91
2021/05/26 23:43:59;;;;;;;5.13;1.50;;;;;;;;;;6199143;23;20667;-91
2021/05/26 23:47:03;;;;;;;4.93;1.85;;;;;;;;;;6199443;23;20180;-89
2021/05/26 23:50:09;;;;;;;2.80;1.15;;;;;;;;;;6200214;23;20180;-92
2021/05/26 23:56:49;;;;;;;2.38;0.98;;;;;;;;;;6204080;23;20199;-91
2021/05/26 23:59:54;;;;;;;3.22;1.20;;;;;;;;;;6216456;22;20160;-92
